Time;durP1;ratioP1;P1;durP2;ratioP2;P2;SDS_P1;SDS_P2;PMS_P1;PMS_P2;Temp;Humidity;BMP_temperature;BMP_pressure;BME280_temperature;BME280_humidity;BME280_pressure;Samples;Min_cycle;Max_cycle;Signal;HPM_P1;HPM_P2
2021/01/23 00:02:01;;;;;;;27.48;19.65;;;;;;;2.22;73.28;98672.91;1740632;80;21170;-40
2021/01/23 00:04:30;;;;;;;31.95;19.67;;;;;;;2.23;73.19;98676.38;1741370;81;21122;-41
2021/01/23 00:06:58;;;;;;;26.93;18.40;;;;;;;2.17;73.20;98664.52;1734095;81;21434;-41
2021/01/23 00:09:26;;;;;;;26.73;18.15;;;;;;;2.12;73.32;98664.69;1748938;81;21173;-41
2021/01/23 00:11:54;;;;;;;24.63;18.05;;;;;;;2.10;73.26;98662.09;1745170;81;21381;-41
2021/01/23 00:14:23;;;;;;;21.85;16.87;;;;;;;2.23;73.23;98662.42;1744575;81;21200;-41
2021/01/23 00:16:52;;;;;;;27.32;18.90;;;;;;;2.23;73.22;98667.77;1740700;81;21203;-41
2021/01/23 00:19:20;;;;;;;27.55;18.02;;;;;;;2.25;73.25;98675.48;1729483;81;21178;-41
2021/01/23 00:21:48;;;;;;;26.52;17.62;;;;;;;2.23;73.38;98666.43;1750633;80;21648;-41
2021/01/23 00:24:17;;;;;;;25.27;18.42;;;;;;;2.17;73.45;98661.84;1747473;81;21195;-41
2021/01/23 00:26:45;;;;;;;23.57;17.42;;;;;;;2.15;73.55;98669.39;1745043;81;21153;-41
2021/01/23 00:29:14;;;;;;;30.70;17.67;;;;;;;2.21;73.46;98662.52;1753789;81;21154;-41
2021/01/23 00:31:42;;;;;;;25.70;18.02;;;;;;;2.28;73.36;98665.47;1752909;81;21174;-41
2021/01/23 00:34:11;;;;;;;25.30;18.30;;;;;;;2.26;73.42;98667.70;1737550;81;21169;-41
2021/01/23 00:36:40;;;;;;;26.27;17.25;;;;;;;2.26;73.40;98659.67;1734310;81;21209;-41
2021/01/23 00:39:08;;;;;;;26.40;17.82;;;;;;;2.28;73.39;98664.91;1742850;81;21145;-41
2021/01/23 00:41:37;;;;;;;25.68;17.62;;;;;;;2.26;73.37;98665.02;1736506;81;21019;-41
2021/01/23 00:44:05;;;;;;;24.40;17.55;;;;;;;2.26;73.37;98674.38;1755005;81;21564;-41
2021/01/23 00:46:34;;;;;;;24.85;17.37;;;;;;;2.25;73.39;98675.48;1746107;81;21182;-41
2021/01/23 00:49:04;;;;;;;26.35;17.77;;;;;;;2.29;73.21;98671.05;1735473;81;21369;-41
2021/01/23 00:51:32;;;;;;;25.50;17.55;;;;;;;2.26;73.23;98677.84;1741321;81;21058;-41
2021/01/23 00:54:01;;;;;;;24.30;17.37;;;;;;;1.86;73.33;98611.86;1761546;80;21156;-40
2021/01/23 00:56:30;;;;;;;25.75;17.30;;;;;;;1.88;73.33;98619.56;1713717;82;21166;-41
2021/01/23 00:58:58;;;;;;;27.25;17.55;;;;;;;2.20;73.42;98671.09;1741685;81;21063;-41
2021/01/23 01:01:27;;;;;;;26.17;16.70;;;;;;;2.16;73.55;98669.63;1746377;81;21311;-41
2021/01/23 01:03:55;;;;;;;22.48;16.05;;;;;;;2.17;73.52;98654.37;1739367;81;21142;-41
2021/01/23 01:06:23;;;;;;;24.27;16.17;;;;;;;2.23;73.51;98650.39;1740497;81;21197;-40
2021/01/23 01:08:52;;;;;;;24.90;16.70;;;;;;;2.25;73.50;98642.05;1742883;81;21444;-40
2021/01/23 01:11:21;;;;;;;19.82;13.78;;;;;;;2.24;73.49;98641.27;1752161;81;21221;-41
2021/01/23 01:13:50;;;;;;;25.92;17.98;;;;;;;2.22;73.58;98646.72;1742280;81;21298;-41
2021/01/23 01:16:18;;;;;;;27.82;18.20;;;;;;;2.17;73.62;98649.81;1749603;80;21475;-40
2021/01/23 01:18:46;;;;;;;26.77;17.30;;;;;;;2.14;73.67;98642.41;1760876;80;21118;-41
2021/01/23 01:21:15;;;;;;;23.85;16.70;;;;;;;2.15;73.75;98643.98;1765223;80;21611;-41
2021/01/23 01:23:44;;;;;;;25.12;17.45;;;;;;;2.23;73.58;98646.38;1765898;81;21170;-41
2021/01/23 01:26:12;;;;;;;23.02;17.30;;;;;;;2.22;73.69;98646.72;1735761;81;21619;-41
2021/01/23 01:28:40;;;;;;;25.52;16.75;;;;;;;2.24;73.68;98652.52;1750981;79;21627;-41
2021/01/23 01:31:09;;;;;;;25.55;17.98;;;;;;;2.24;73.62;98650.63;1759051;80;21290;-42
2021/01/23 01:33:37;;;;;;;27.20;17.48;;;;;;;2.24;73.58;98653.84;1764770;80;21094;-41
2021/01/23 01:36:16;;;;;;;24.85;17.17;;;;;;;2.26;73.57;98643.63;1871566;76;22140;-42
2021/01/23 01:38:44;;;;;;;25.25;17.02;;;;;;;2.26;73.45;98644.96;1845305;77;20976;-41
2021/01/23 01:41:14;;;;;;;25.05;16.90;;;;;;;2.33;73.28;98642.55;1858701;77;22104;-41
2021/01/23 01:43:44;;;;;;;23.15;16.73;;;;;;;2.33;73.25;98651.91;1854508;77;21591;-40
2021/01/23 01:46:12;;;;;;;24.52;17.12;;;;;;;2.34;73.18;98653.48;1784643;77;21472;-41
2021/01/23 01:48:42;;;;;;;24.77;17.20;;;;;;;2.33;73.07;98651.36;1839100;77;20987;-42
2021/01/23 01:51:10;;;;;;;25.25;17.35;;;;;;;2.29;73.02;98638.96;1783990;79;21031;-41
2021/01/23 01:53:41;;;;;;;24.70;17.15;;;;;;;2.22;73.10;98642.70;1782388;78;21272;-41
2021/01/23 01:56:08;;;;;;;22.02;15.65;;;;;;;2.18;73.18;98644.67;1785718;78;21023;-41
2021/01/23 01:58:37;;;;;;;23.40;17.00;;;;;;;2.27;73.12;98642.53;1776984;80;20952;-41
2021/01/23 02:01:05;;;;;;;26.02;17.30;;;;;;;2.32;73.01;98647.70;1778837;80;21105;-40
2021/01/23 02:04:05;;;;;;;27.27;17.13;;;;;;;2.33;72.92;98655.92;1772614;80;21676;-41
2021/01/23 02:07:11;;;;;;;25.82;18.12;;;;;;;2.33;72.89;98654.59;1788218;79;21804;-41
2021/01/23 02:09:51;;;;;;;27.82;16.77;;;;;;;2.28;72.89;98660.12;1768861;80;21137;-40
2021/01/23 02:15:29;;;;;;;24.85;16.27;;;;;;;2.21;72.75;98670.55;1799141;79;22027;-41
2021/01/23 02:18:04;;;;;;;23.80;16.32;;;;;;;2.21;72.75;98670.55;1779258;80;20989;-40
2021/01/23 02:21:16;;;;;;;26.95;17.17;;;;;;;2.18;72.81;98668.73;1721377;83;21392;-41
2021/01/23 02:23:45;;;;;;;25.12;17.30;;;;;;;2.15;72.97;98672.06;1716897;83;21008;-41
2021/01/23 02:26:50;;;;;;;25.32;16.75;;;;;;;2.06;73.13;98676.66;1707206;81;21020;-41
2021/01/23 02:29:54;;;;;;;23.92;16.40;;;;;;;2.01;73.24;98683.52;1699500;83;21063;-41
2021/01/23 02:32:22;;;;;;;23.47;16.17;;;;;;;2.00;73.40;98688.62;1662761;84;21397;-41
2021/01/23 02:34:51;;;;;;;25.17;17.05;;;;;;;2.04;73.25;98690.09;1682913;84;21205;-41
2021/01/23 02:37:19;;;;;;;26.40;18.07;;;;;;;2.00;73.35;98683.27;1708838;82;21344;-41
2021/01/23 02:39:47;;;;;;;25.40;17.90;;;;;;;1.98;73.40;98687.38;1729796;82;21107;-41
2021/01/23 02:42:15;;;;;;;27.25;18.57;;;;;;;1.95;73.44;98684.78;1734814;82;21184;-41
2021/01/23 02:44:44;;;;;;;27.75;17.75;;;;;;;1.90;73.47;98680.16;1737567;82;21091;-41
2021/01/23 02:47:13;;;;;;;23.95;16.12;;;;;;;1.90;73.54;98678.27;1726792;82;23514;-41
2021/01/23 02:49:41;;;;;;;26.27;17.25;;;;;;;1.97;73.45;98683.92;1733525;82;21178;-41
2021/01/23 02:52:46;;;;;;;24.45;17.85;;;;;;;1.99;73.38;98684.37;1716318;80;21608;-41
2021/01/23 02:55:18;;;;;;;24.57;17.55;;;;;;;1.96;73.43;98680.22;1717849;82;21032;-41
2021/01/23 02:57:49;;;;;;;24.27;17.65;;;;;;;1.92;73.51;98674.73;1726135;82;21597;-41
2021/01/23 03:00:18;;;;;;;25.57;17.05;;;;;;;1.91;73.51;98683.85;1731937;82;21753;-41
2021/01/23 03:02:50;;;;;;;22.50;16.70;;;;;;;1.95;73.39;98679.98;1716478;82;21656;-40
2021/01/23 03:05:18;;;;;;;24.65;16.10;;;;;;;2.03;73.18;98687.21;1735856;82;21139;-41
2021/01/23 03:07:46;;;;;;;25.08;18.10;;;;;;;2.06;73.06;98679.33;1727494;82;21604;-41
2021/01/23 03:10:14;;;;;;;27.15;17.07;;;;;;;2.06;73.08;98679.33;1736374;82;21139;-41
2021/01/23 03:12:43;;;;;;;25.52;17.60;;;;;;;2.04;73.04;98678.06;1727158;82;21256;-41
2021/01/23 03:15:14;;;;;;;25.35;17.92;;;;;;;1.99;73.07;98676.90;1709155;82;21037;-41
2021/01/23 03:17:42;;;;;;;26.50;17.50;;;;;;;1.94;73.18;98680.53;1698178;83;21171;-41
2021/01/23 03:20:11;;;;;;;22.13;15.68;;;;;;;2.01;73.05;98662.13;1768134;80;21647;-41
2021/01/23 03:22:40;;;;;;;25.62;16.97;;;;;;;2.06;72.91;98666.52;1770810;80;21135;-41
2021/01/23 03:25:10;;;;;;;24.60;16.87;;;;;;;2.04;72.93;98677.52;1778616;80;21424;-40
2021/01/23 03:27:38;;;;;;;20.82;14.35;;;;;;;2.02;73.02;98677.61;1755745;79;21181;-42
2021/01/23 03:30:08;;;;;;;25.00;16.52;;;;;;;1.99;73.03;98672.34;1749047;79;21155;-41
2021/01/23 03:32:37;;;;;;;27.75;16.93;;;;;;;1.96;73.01;98666.30;1775060;80;21600;-41
2021/01/23 03:35:07;;;;;;;22.48;16.45;;;;;;;1.96;73.00;98677.00;1737687;82;21132;-40
2021/01/23 03:37:36;;;;;;;23.98;17.30;;;;;;;2.07;72.82;98683.58;1774289;80;22082;-41
2021/01/23 03:40:06;;;;;;;25.90;18.12;;;;;;;2.16;72.50;98668.83;1706364;83;21017;-41
2021/01/23 03:42:34;;;;;;;22.25;16.62;;;;;;;2.17;72.44;98671.75;1763523;80;21035;-41
2021/01/23 03:45:07;;;;;;;24.80;17.25;;;;;;;2.16;72.35;98664.83;1768477;80;21127;-42
2021/01/23 03:47:35;;;;;;;24.92;18.32;;;;;;;2.13;72.25;98664.14;1777179;80;21059;-41
2021/01/23 03:50:06;;;;;;;28.25;17.50;;;;;;;2.10;72.31;98654.86;1777110;80;21552;-41
2021/01/23 03:52:35;;;;;;;22.62;15.50;;;;;;;2.12;72.21;98651.87;1767496;80;21146;-41
2021/01/23 03:55:06;;;;;;;23.57;16.57;;;;;;;2.18;72.08;98662.59;1757770;80;21190;-41
2021/01/23 03:57:35;;;;;;;24.85;17.27;;;;;;;2.23;71.94;98663.76;1775502;80;21159;-40
2021/01/23 04:00:09;;;;;;;18.57;12.60;;;;;;;2.20;72.01;98668.42;1774870;80;21143;-41
2021/01/23 04:02:37;;;;;;;25.10;17.30;;;;;;;2.16;72.00;98668.28;1760575;79;21204;-41
2021/01/23 04:05:08;;;;;;;27.25;17.15;;;;;;;2.12;72.07;98677.27;1775749;79;21143;-41
2021/01/23 04:07:36;;;;;;;24.72;16.73;;;;;;;2.04;72.13;98677.52;1774293;79;21166;-42
2021/01/23 04:10:06;;;;;;;22.05;14.83;;;;;;;2.04;72.10;98670.05;1710301;83;21618;-41
2021/01/23 04:12:35;;;;;;;25.17;16.52;;;;;;;2.09;71.99;98657.29;1759017;80;21154;-40
2021/01/23 04:15:06;;;;;;;26.48;17.62;;;;;;;2.11;71.94;98661.78;1764059;80;21560;-41
2021/01/23 04:17:34;;;;;;;25.35;16.73;;;;;;;2.11;72.03;98665.78;1748145;79;21063;-41
2021/01/23 04:20:06;;;;;;;;;;;;;;;2.08;72.15;98677.69;1745689;80;21505;-41
2021/01/23 04:22:34;;;;;;;27.48;17.52;;;;;;;1.99;72.20;98677.69;1743256;80;20276;-41
2021/01/23 04:25:05;;;;;;;18.60;12.80;;;;;;;1.87;72.54;98684.26;1759463;80;21628;-41
2021/01/23 04:27:34;;;;;;;22.07;15.83;;;;;;;1.84;72.63;98687.55;1761246;79;21374;-41
2021/01/23 04:30:04;;;;;;;25.32;16.60;;;;;;;1.84;72.55;98679.53;1772032;80;21158;-41
2021/01/23 04:32:34;;;;;;;23.40;16.30;;;;;;;1.81;72.64;98674.83;1771394;79;21158;-41
2021/01/23 04:35:09;;;;;;;23.80;16.67;;;;;;;1.75;72.78;98670.75;1757663;79;21020;-41
2021/01/23 04:37:38;;;;;;;25.40;16.95;;;;;;;1.69;73.04;98672.80;1763664;80;21844;-41
2021/01/23 04:40:08;;;;;;;22.75;12.93;;;;;;;1.65;73.15;98669.20;1769775;80;21389;-41
2021/01/23 04:42:42;;;;;;;23.52;15.48;;;;;;;1.71;73.04;98663.93;1770583;80;21606;-41
2021/01/23 04:45:13;;;;;;;23.30;17.30;;;;;;;1.78;72.89;98666.13;1702703;84;21569;-41
2021/01/23 04:47:41;;;;;;;22.80;16.30;;;;;;;1.79;72.85;98669.04;1770377;79;21537;-41
2021/01/23 04:50:11;;;;;;;24.37;17.20;;;;;;;1.78;72.87;98672.81;1754556;80;21686;-40
2021/01/23 04:52:41;;;;;;;25.77;16.95;;;;;;;1.76;72.85;98679.01;1743512;80;21205;-41
2021/01/23 04:55:10;;;;;;;23.73;16.57;;;;;;;1.70;72.88;98682.95;1761130;80;21526;-41
2021/01/23 04:57:43;;;;;;;22.90;15.75;;;;;;;1.73;72.82;98680.99;1757839;80;21204;-41
2021/01/23 05:00:13;;;;;;;23.35;16.67;;;;;;;1.78;72.69;98680.04;1748102;80;21594;-41
2021/01/23 05:02:42;;;;;;;22.45;16.42;;;;;;;1.78;72.75;98690.73;1752134;79;21541;-40
2021/01/23 05:05:11;;;;;;;23.60;16.45;;;;;;;1.75;72.84;98693.47;1752416;80;21349;-41
2021/01/23 05:07:43;;;;;;;26.07;17.60;;;;;;;1.75;72.84;98702.82;1764490;80;21644;-41
2021/01/23 05:10:17;;;;;;;22.62;16.80;;;;;;;1.72;72.81;98710.94;1766898;80;21167;-41
2021/01/23 05:12:50;;;;;;;25.12;17.32;;;;;;;1.75;72.74;98702.82;1769216;79;21092;-41
2021/01/23 05:15:32;;;;;;;25.52;17.20;;;;;;;1.78;72.59;98700.87;1767883;80;21199;-41
2021/01/23 05:18:06;;;;;;;28.62;17.65;;;;;;;1.80;72.70;98702.66;1765448;80;21660;-41
2021/01/23 05:20:46;;;;;;;26.02;17.77;;;;;;;1.77;72.74;98700.63;1743280;80;22221;-41
2021/01/23 05:23:23;;;;;;;25.27;18.20;;;;;;;1.76;72.75;98711.08;1751916;79;21155;-41
2021/01/23 05:25:59;;;;;;;25.08;18.35;;;;;;;1.74;72.80;98710.63;1761421;80;21115;-40
2021/01/23 05:28:35;;;;;;;23.80;17.62;;;;;;;1.81;72.70;98714.92;1759611;80;21155;-41
2021/01/23 05:31:17;;;;;;;26.93;17.70;;;;;;;1.89;72.47;98708.77;1766742;80;22183;-41
2021/01/23 05:33:45;;;;;;;24.18;17.75;;;;;;;1.92;72.41;98708.14;1679841;83;21165;-41
2021/01/23 05:36:14;;;;;;;27.43;18.17;;;;;;;1.92;72.43;98709.48;1760784;80;21139;-41
2021/01/23 05:38:44;;;;;;;31.30;17.90;;;;;;;1.95;72.37;98707.50;1768090;79;21769;-41
2021/01/23 05:41:14;;;;;;;29.80;18.10;;;;;;;1.93;72.37;98707.59;1767551;80;21609;-42
2021/01/23 05:43:49;;;;;;;26.27;17.12;;;;;;;1.92;72.39;98702.80;1771263;80;21629;-41
2021/01/23 05:46:32;;;;;;;23.07;15.58;;;;;;;2.00;72.27;98705.20;1766633;80;21601;-41
2021/01/23 05:49:00;;;;;;;27.95;17.20;;;;;;;2.08;72.16;98705.17;1704463;82;21727;-41
2021/01/23 05:51:28;;;;;;;25.40;18.07;;;;;;;1.80;72.15;98663.91;1753417;79;21174;-41
2021/01/23 05:53:56;;;;;;;26.33;18.32;;;;;;;2.11;72.05;98708.56;1743038;82;21016;-41
2021/01/23 05:56:24;;;;;;;28.25;18.15;;;;;;;2.10;72.11;98720.36;1758732;80;21616;-41
2021/01/23 05:58:53;;;;;;;27.70;18.73;;;;;;;2.11;71.98;98720.59;1767173;80;21351;-41
2021/01/23 06:01:21;;;;;;;24.90;17.12;;;;;;;2.12;71.90;98720.84;1768308;79;21202;-41
2021/01/23 06:03:51;;;;;;;24.37;16.52;;;;;;;2.21;71.70;98711.45;1745229;80;21159;-40
2021/01/23 06:06:19;;;;;;;23.35;17.95;;;;;;;2.29;71.52;98697.80;1765002;80;21138;-41
2021/01/23 06:08:49;;;;;;;24.90;17.35;;;;;;;2.33;71.48;98698.72;1756752;80;21193;-41
2021/01/23 06:11:24;;;;;;;24.15;17.12;;;;;;;2.35;71.29;98695.97;1758338;80;21084;-41
2021/01/23 06:13:56;;;;;;;27.93;18.45;;;;;;;2.32;71.18;98688.60;1762658;79;21311;-42
2021/01/23 06:16:36;;;;;;;25.57;18.10;;;;;;;2.28;71.17;98698.90;1742847;82;21184;-42
2021/01/23 06:19:10;;;;;;;25.23;17.82;;;;;;;2.19;71.28;98704.28;1754090;80;21569;-43
2021/01/23 06:21:51;;;;;;;22.65;16.45;;;;;;;2.18;71.44;98708.05;1760360;80;21383;-42
2021/01/23 06:24:34;;;;;;;24.85;17.67;;;;;;;2.27;71.30;98712.06;1770642;80;21266;-42
2021/01/23 06:27:04;;;;;;;25.65;17.50;;;;;;;2.25;71.38;98712.92;1757918;79;21012;-42
2021/01/23 06:29:45;;;;;;;26.80;17.67;;;;;;;2.22;71.44;98705.00;1743742;80;21165;-41
2021/01/23 06:32:21;;;;;;;25.77;17.37;;;;;;;2.23;71.52;98701.20;1756760;80;21142;-42
2021/01/23 06:35:02;;;;;;;26.02;17.23;;;;;;;2.25;71.56;98692.31;1765073;80;21396;-42
2021/01/23 06:37:37;;;;;;;24.65;16.15;;;;;;;2.28;71.56;98696.22;1770033;79;21632;-42
2021/01/23 06:40:12;;;;;;;25.05;15.72;;;;;;;2.38;71.41;98703.89;1768256;80;21028;-42
2021/01/23 06:42:48;;;;;;;21.77;16.32;;;;;;;2.48;71.14;98707.55;1752602;80;21154;-42
2021/01/23 06:45:26;;;;;;;27.58;17.65;;;;;;;2.48;71.21;98711.56;1757695;80;21158;-42
2021/01/23 06:47:56;;;;;;;26.02;17.57;;;;;;;2.50;71.30;98704.02;1764789;79;21445;-42
2021/01/23 06:50:43;;;;;;;25.10;17.75;;;;;;;2.54;71.36;98703.05;1751433;79;21195;-42
2021/01/23 06:53:22;;;;;;;23.95;16.48;;;;;;;2.60;71.29;98715.69;1743558;80;21004;-41
2021/01/23 06:55:52;;;;;;;23.18;16.50;;;;;;;2.59;71.13;98720.26;1756896;79;21067;-42
2021/01/23 06:58:29;;;;;;;25.48;16.25;;;;;;;2.60;71.15;98718.38;1774012;80;21131;-42
2021/01/23 07:00:59;;;;;;;25.45;16.57;;;;;;;2.68;71.04;98725.56;1769251;80;22083;-41
2021/01/23 07:03:28;;;;;;;23.47;16.77;;;;;;;2.75;70.77;98729.08;1701442;82;27295;-42
2021/01/23 07:05:59;;;;;;;25.60;17.30;;;;;;;2.73;71.01;98732.07;1759572;79;21179;-42
2021/01/23 07:08:37;;;;;;;26.62;18.20;;;;;;;2.73;71.16;98730.73;1745116;80;21012;-42
2021/01/23 07:11:23;;;;;;;26.75;16.95;;;;;;;2.81;70.85;98728.55;1754456;80;21151;-42
2021/01/23 07:16:56;;;;;;;24.87;17.07;;;;;;;2.83;70.90;98742.41;1830670;78;22545;-41
2021/01/23 07:19:26;;;;;;;25.35;16.95;;;;;;;2.84;70.85;98748.00;1814460;79;21576;-41
2021/01/23 07:21:55;;;;;;;25.12;17.73;;;;;;;2.93;70.58;98758.66;1793352;78;22296;-41
2021/01/23 07:24:25;;;;;;;24.25;16.97;;;;;;;2.92;70.40;98761.89;1751506;80;21027;-40
2021/01/23 07:26:53;;;;;;;25.50;16.87;;;;;;;2.91;70.47;98763.54;1788183;79;25637;-40
2021/01/23 07:29:21;;;;;;;23.62;17.77;;;;;;;2.88;70.44;98758.29;1775330;79;20972;-41
2021/01/23 07:31:51;;;;;;;24.45;17.12;;;;;;;2.86;70.51;98752.46;1814236;77;21012;-41
2021/01/23 07:34:19;;;;;;;23.90;16.27;;;;;;;2.85;70.66;98743.44;1690181;82;21353;-41
2021/01/23 07:36:49;;;;;;;24.52;17.32;;;;;;;2.91;70.64;98741.57;1749240;81;21019;-41
2021/01/23 07:39:18;;;;;;;26.62;16.30;;;;;;;3.03;70.29;98739.55;1759334;79;21056;-42
2021/01/23 07:41:54;;;;;;;19.27;11.85;;;;;;;3.12;70.40;98735.47;1767730;80;21204;-41
2021/01/23 07:44:24;;;;;;;26.93;17.02;;;;;;;3.24;70.13;98732.33;1748734;82;21184;-41
2021/01/23 07:46:53;;;;;;;25.57;16.15;;;;;;;3.37;69.85;98736.64;1754420;80;21284;-41
2021/01/23 07:49:28;;;;;;;26.60;16.90;;;;;;;3.47;69.65;98742.16;1756121;80;21130;-41
2021/01/23 07:52:10;;;;;;;27.75;17.60;;;;;;;3.59;69.22;98740.86;1749022;80;21024;-41
2021/01/23 07:54:51;;;;;;;21.97;16.10;;;;;;;3.67;68.84;98744.05;1753686;80;21199;-42
2021/01/23 07:57:19;;;;;;;23.47;16.48;;;;;;;3.74;68.75;98745.63;1731558;80;21148;-41
2021/01/23 07:59:54;;;;;;;25.52;17.52;;;;;;;3.90;68.36;98746.59;1754990;80;21336;-42
2021/01/23 08:02:23;;;;;;;27.77;16.82;;;;;;;4.09;67.69;98738.59;1773412;79;21163;-42
2021/01/23 08:04:54;;;;;;;26.25;17.45;;;;;;;4.20;67.52;98735.17;1749540;80;21569;-42
2021/01/23 08:07:24;;;;;;;;;;;;;;;4.35;67.31;98731.06;1765385;80;21145;-42
2021/01/23 08:10:19;;;;;;;26.00;17.70;;;;;;;4.57;66.90;98731.97;1768620;79;20240;-43
2021/01/23 08:12:58;;;;;;;29.85;16.17;;;;;;;4.65;66.73;98727.04;1761070;80;21379;-42
2021/01/23 08:15:37;;;;;;;23.52;15.75;;;;;;;4.86;66.04;98729.62;1749779;80;21591;-43
2021/01/23 08:18:20;;;;;;;24.87;17.32;;;;;;;5.01;65.73;98728.16;1757657;80;21029;-43
2021/01/23 08:20:49;;;;;;;27.17;18.12;;;;;;;5.17;65.07;98727.13;1758247;80;21165;-42
2021/01/23 08:23:18;;;;;;;26.97;17.87;;;;;;;5.31;64.51;98727.33;1757449;81;21160;-40
2021/01/23 08:25:56;;;;;;;22.67;16.50;;;;;;;5.49;64.32;98723.23;1778157;80;21257;-41
2021/01/23 08:28:43;;;;;;;24.95;17.50;;;;;;;5.68;64.07;98720.14;1774720;80;21202;-42
2021/01/23 08:31:23;;;;;;;24.98;17.73;;;;;;;5.91;63.56;98723.09;1748322;80;21668;-42
2021/01/23 08:33:55;;;;;;;16.73;11.80;;;;;;;6.08;62.64;98724.70;1786012;80;21590;-42
2021/01/23 08:36:27;;;;;;;27.35;17.35;;;;;;;6.23;62.19;98723.95;1758253;80;21160;-38
2021/01/23 08:39:05;;;;;;;24.27;16.73;;;;;;;6.36;61.76;98722.73;1774990;78;22135;-40
2021/01/23 08:41:35;;;;;;;;;;;;;;;6.48;61.13;98721.32;1764667;80;21554;-39
2021/01/23 08:44:06;;;;;;;24.45;16.70;;;;;;;6.61;60.82;98722.56;1757477;80;20281;-39
2021/01/23 08:46:35;;;;;;;24.87;17.95;;;;;;;6.66;60.79;98711.53;1764182;80;21140;-41
2021/01/23 08:49:04;;;;;;;24.95;15.68;;;;;;;6.81;60.34;98704.00;1757329;80;21156;-43
2021/01/23 08:51:33;;;;;;;22.20;15.60;;;;;;;6.92;59.71;98709.83;1775345;80;21396;-40
2021/01/23 08:54:01;;;;;;;24.72;16.35;;;;;;;7.03;59.26;98710.08;1785710;80;21105;-37
2021/01/23 08:56:30;;;;;;;22.35;17.02;;;;;;;7.17;59.18;98701.52;1761328;80;21137;-39
2021/01/23 08:58:58;;;;;;;25.82;18.67;;;;;;;7.33;58.80;98698.98;1783225;79;21109;-40
2021/01/23 09:01:28;;;;;;;27.00;17.37;;;;;;;7.41;58.10;98707.44;1757025;80;21183;-40
2021/01/23 09:03:57;;;;;;;25.68;17.80;;;;;;;7.42;57.95;98710.34;1767551;78;21195;-44
2021/01/23 09:06:25;;;;;;;25.68;17.75;;;;;;;7.47;57.89;98712.55;1776700;80;21912;-44
2021/01/23 09:08:55;;;;;;;24.55;18.32;;;;;;;7.55;57.81;98718.31;1780399;80;21153;-44
2021/01/23 09:11:25;;;;;;;24.05;16.70;;;;;;;7.67;57.46;98718.16;1742511;81;21150;-44
2021/01/23 09:13:53;;;;;;;27.30;18.20;;;;;;;7.80;57.31;98726.31;1779147;80;21168;-44
2021/01/23 09:16:21;;;;;;;22.87;16.67;;;;;;;7.95;57.00;98725.45;1748309;80;21214;-44
2021/01/23 09:18:51;;;;;;;22.67;17.20;;;;;;;8.13;56.58;98723.10;1716709;82;21597;-44
2021/01/23 09:21:19;;;;;;;25.50;17.32;;;;;;;8.27;55.10;98730.89;1742820;81;21560;-43
2021/01/23 09:23:48;;;;;;;25.35;16.60;;;;;;;8.41;55.24;98729.59;1738043;82;21226;-43
2021/01/23 09:26:17;;;;;;;22.40;16.35;;;;;;;8.55;55.25;98725.78;1745379;79;21028;-43
2021/01/23 09:28:45;;;;;;;21.07;15.65;;;;;;;8.75;54.67;98724.57;1719505;82;21420;-43
2021/01/23 09:31:14;;;;;;;21.33;14.93;;;;;;;8.97;54.30;98725.66;1765618;81;21140;-44
2021/01/23 09:33:42;;;;;;;21.35;15.45;;;;;;;9.23;54.00;98724.89;1734294;81;21079;-44
2021/01/23 09:36:10;;;;;;;17.20;14.28;;;;;;;9.43;53.02;98731.73;1737957;82;21171;-43
2021/01/23 09:38:38;;;;;;;19.02;14.18;;;;;;;9.53;52.79;98731.09;1754902;81;21211;-45
2021/01/23 09:41:07;;;;;;;20.08;14.95;;;;;;;9.56;52.27;98727.64;1737888;82;21285;-45
2021/01/23 09:43:36;;;;;;;22.62;16.12;;;;;;;9.49;52.18;98725.62;1738030;82;21052;-44
2021/01/23 09:46:05;;;;;;;22.10;15.13;;;;;;;9.34;52.30;98737.42;1739962;81;21162;-45
2021/01/23 09:48:33;;;;;;;21.20;15.68;;;;;;;9.20;52.54;98746.66;1740528;81;21469;-45
2021/01/23 09:51:03;;;;;;;23.38;16.35;;;;;;;9.06;52.90;98747.24;1767916;79;21096;-45
2021/01/23 09:53:32;;;;;;;21.12;14.95;;;;;;;8.96;53.21;98738.40;1748674;81;21201;-44
2021/01/23 09:56:01;;;;;;;16.97;11.93;;;;;;;8.86;53.28;98736.31;1749888;81;21198;-44
2021/01/23 09:58:30;;;;;;;23.90;16.00;;;;;;;8.77;53.48;98724.97;1749930;81;21156;-44
2021/01/23 10:00:59;;;;;;;22.95;16.17;;;;;;;8.72;53.74;98723.92;1731352;82;21603;-44
2021/01/23 10:03:27;;;;;;;22.45;16.27;;;;;;;8.71;54.04;98728.55;1742645;81;21612;-45
2021/01/23 10:05:56;;;;;;;25.00;17.60;;;;;;;8.76;53.93;98721.30;1720779;80;21199;-44
2021/01/23 10:08:28;;;;;;;26.40;19.15;;;;;;;8.79;54.03;98717.30;1751773;81;21033;-45
2021/01/23 10:10:58;;;;;;;25.17;17.25;;;;;;;8.85;54.25;98725.31;1733159;82;22275;-44
2021/01/23 10:13:30;;;;;;;24.55;17.48;;;;;;;8.88;54.18;98716.47;1738080;82;21559;-45
2021/01/23 10:15:58;;;;;;;24.50;17.85;;;;;;;8.94;54.00;98713.67;1742696;80;20976;-44
2021/01/23 10:18:27;;;;;;;25.15;17.57;;;;;;;8.97;53.67;98714.85;1725594;81;21383;-45
2021/01/23 10:20:57;;;;;;;25.72;16.87;;;;;;;8.96;53.73;98710.58;1751713;81;21571;-45
2021/01/23 10:23:25;;;;;;;26.55;17.48;;;;;;;9.00;53.78;98714.92;1756681;80;21031;-44
2021/01/23 10:25:54;;;;;;;25.57;19.50;;;;;;;9.05;53.70;98703.77;1756783;81;21141;-45
2021/01/23 10:28:23;;;;;;;29.23;21.70;;;;;;;9.14;53.59;98700.82;1771862;80;21157;-44
2021/01/23 10:30:51;;;;;;;26.93;18.98;;;;;;;9.22;53.17;98698.98;1757667;80;21209;-45
2021/01/23 10:33:19;;;;;;;24.77;17.45;;;;;;;9.28;53.21;98690.77;1780024;80;21157;-45
2021/01/23 10:35:48;;;;;;;30.08;18.32;;;;;;;9.45;53.04;98682.08;1787919;80;21101;-45
2021/01/23 10:38:16;;;;;;;21.05;16.27;;;;;;;9.70;52.71;98685.86;1774453;80;21472;-44
2021/01/23 10:40:47;;;;;;;22.22;16.40;;;;;;;9.99;52.04;98688.30;1781371;80;21147;-45
2021/01/23 10:43:16;;;;;;;24.90;17.23;;;;;;;10.28;51.53;98689.39;1757197;80;21288;-40
2021/01/23 10:45:46;;;;;;;23.42;17.05;;;;;;;10.62;51.11;98692.20;1765126;80;21101;-41
2021/01/23 10:48:18;;;;;;;24.57;16.67;;;;;;;10.94;50.22;98694.38;1780212;80;21184;-44
2021/01/23 10:50:48;;;;;;;24.25;17.35;;;;;;;11.21;49.22;98691.63;1765990;80;21567;-44
2021/01/23 10:53:17;;;;;;;;;;;;;;;11.39;48.78;98686.27;1773953;80;21143;-44
2021/01/23 10:55:46;;;;;;;23.45;16.17;;;;;;;11.55;48.47;98679.95;1787000;80;21279;-44
2021/01/23 10:58:14;;;;;;;22.58;15.35;;;;;;;11.60;48.33;98675.52;1776755;79;21183;-44
2021/01/23 11:00:45;;;;;;;20.40;13.60;;;;;;;11.77;47.91;98668.03;1783048;80;21112;-44
2021/01/23 11:03:14;;;;;;;18.77;13.30;;;;;;;11.96;46.97;98665.55;1765178;79;21037;-44
2021/01/23 11:05:44;;;;;;;18.17;13.22;;;;;;;12.17;46.39;98664.23;1769501;80;21129;-44
2021/01/23 11:08:15;;;;;;;19.40;13.25;;;;;;;12.41;46.02;98662.70;1757371;80;21407;-44
2021/01/23 11:10:43;;;;;;;22.05;14.13;;;;;;;12.69;45.98;98653.17;1762062;80;21030;-44
2021/01/23 11:13:11;;;;;;;17.70;13.03;;;;;;;12.96;45.19;98652.95;1762695;80;20977;-44
2021/01/23 11:15:41;;;;;;;17.27;13.05;;;;;;;13.20;44.10;98650.00;1757221;80;21120;-44
2021/01/23 11:18:09;;;;;;;18.40;12.73;;;;;;;13.37;43.77;98650.52;1755495;80;21115;-44
2021/01/23 11:20:38;;;;;;;17.82;13.03;;;;;;;13.60;43.26;98651.41;1728919;81;21278;-44
2021/01/23 11:23:06;;;;;;;20.62;14.13;;;;;;;13.77;42.77;98652.47;1751168;81;21984;-44
2021/01/23 11:25:34;;;;;;;18.27;13.55;;;;;;;13.99;42.46;98651.78;1777584;80;21136;-44
2021/01/23 11:28:04;;;;;;;15.85;13.30;;;;;;;14.17;42.50;98651.84;1761254;80;21183;-44
2021/01/23 11:30:33;;;;;;;21.30;15.83;;;;;;;14.41;41.79;98654.81;1750085;80;21236;-44
2021/01/23 11:33:01;;;;;;;20.97;15.68;;;;;;;14.61;41.57;98656.60;1764202;80;21451;-45
2021/01/23 11:35:30;;;;;;;21.75;16.15;;;;;;;14.68;41.19;98649.70;1787766;80;21165;-45
2021/01/23 11:38:00;;;;;;;21.97;17.27;;;;;;;14.79;40.92;98645.52;1787863;80;21068;-44
2021/01/23 11:40:28;;;;;;;;;;;;;;;14.82;40.50;98639.23;1766502;80;21133;-44
2021/01/23 11:42:56;;;;;;;23.02;17.75;;;;;;;14.75;40.48;98640.10;1779742;80;20260;-45
2021/01/23 11:45:26;;;;;;;24.52;19.17;;;;;;;14.45;41.15;98643.28;1794326;79;23450;-44
2021/01/23 11:47:55;;;;;;;26.20;19.02;;;;;;;14.25;41.21;98647.89;1781351;79;21052;-44
2021/01/23 11:50:23;;;;;;;25.55;19.52;;;;;;;14.01;41.23;98636.56;1783245;79;21158;-44
2021/01/23 11:52:55;;;;;;;25.75;19.20;;;;;;;13.75;41.72;98643.91;1730041;81;21174;-44